createdAt,value
2017-10-07T00:00:51.187Z,48
2017-10-07T00:01:59.269Z,48
2017-10-07T00:03:07.355Z,48
2017-10-07T00:04:15.444Z,47
2017-10-07T00:05:23.554Z,48
2017-10-07T00:06:31.618Z,47
2017-10-07T00:07:39.705Z,48
2017-10-07T00:08:47.792Z,48
2017-10-07T00:09:55.890Z,48
2017-10-07T00:11:03.978Z,47
2017-10-07T00:12:12.066Z,47
2017-10-07T00:13:20.153Z,47
2017-10-07T00:14:28.240Z,47
2017-10-07T00:15:36.330Z,47
2017-10-07T00:16:44.416Z,47
2017-10-07T00:17:52.501Z,47
2017-10-07T00:19:00.592Z,47
2017-10-07T00:20:08.680Z,47
2017-10-07T00:21:16.769Z,47
2017-10-07T00:22:24.860Z,47
2017-10-07T00:23:32.943Z,47
2017-10-07T00:24:41.037Z,47
2017-10-07T00:25:49.125Z,47
2017-10-07T00:26:57.210Z,47
2017-10-07T00:28:05.298Z,47
2017-10-07T00:29:13.389Z,47
2017-10-07T00:30:21.476Z,47
2017-10-07T00:31:29.563Z,47
2017-10-07T00:32:37.650Z,47
2017-10-07T00:33:45.738Z,47
2017-10-07T00:34:53.842Z,47
2017-10-07T00:36:01.912Z,47
2017-10-07T00:37:10.086Z,47
2017-10-07T00:38:18.091Z,47
2017-10-07T00:39:26.185Z,47
2017-10-07T00:40:34.268Z,47
2017-10-07T00:41:42.355Z,46
2017-10-07T00:42:50.457Z,47
2017-10-07T00:43:58.528Z,47
2017-10-07T00:45:06.628Z,47
2017-10-07T00:46:14.735Z,46
2017-10-07T00:47:22.806Z,46
2017-10-07T00:48:30.894Z,46
2017-10-07T00:49:38.982Z,47
2017-10-07T00:50:47.067Z,47
2017-10-07T00:51:55.158Z,46
2017-10-07T00:53:03.246Z,47
2017-10-07T00:54:11.335Z,46
2017-10-07T00:55:19.422Z,46
2017-10-07T00:56:27.509Z,46
2017-10-07T00:57:35.597Z,46
2017-10-07T00:58:43.696Z,47
2017-10-07T00:59:51.774Z,47
2017-10-07T01:00:59.860Z,46
2017-10-07T01:02:07.952Z,46
2017-10-07T01:03:16.039Z,46
2017-10-07T01:04:24.126Z,47
2017-10-07T01:05:32.214Z,47
2017-10-07T01:06:40.303Z,47
2017-10-07T01:07:48.391Z,47
2017-10-07T01:08:56.478Z,46
2017-10-07T01:10:04.569Z,47
2017-10-07T01:11:12.654Z,47
2017-10-07T01:12:20.742Z,46
2017-10-07T01:13:28.832Z,46
2017-10-07T01:14:36.917Z,47
2017-10-07T01:15:45.034Z,46
2017-10-07T01:16:53.095Z,46
2017-10-07T01:18:01.341Z,47
2017-10-07T01:19:09.428Z,46
2017-10-07T01:20:17.521Z,46
2017-10-07T01:21:25.607Z,46
2017-10-07T01:22:33.694Z,46
2017-10-07T01:23:41.791Z,46
2017-10-07T01:24:49.872Z,46
2017-10-07T01:25:57.959Z,46
2017-10-07T01:27:06.046Z,46
2017-10-07T01:28:14.135Z,46
2017-10-07T01:29:22.233Z,46
2017-10-07T01:30:30.313Z,46
2017-10-07T01:31:38.400Z,46
2017-10-07T01:32:46.492Z,46
2017-10-07T01:33:54.574Z,46
2017-10-07T01:35:02.662Z,46
2017-10-07T01:36:10.771Z,46
2017-10-07T01:37:18.841Z,46
2017-10-07T01:38:26.928Z,46
2017-10-07T01:39:35.018Z,46
2017-10-07T01:40:43.106Z,46
2017-10-07T01:41:51.194Z,46
2017-10-07T01:42:59.290Z,46
2017-10-07T01:44:07.378Z,46
2017-10-07T01:45:15.469Z,46
2017-10-07T01:46:23.554Z,46
2017-10-07T01:47:31.642Z,46
2017-10-07T01:48:39.737Z,46
2017-10-07T01:49:47.819Z,46
2017-10-07T01:50:55.906Z,46
2017-10-07T01:52:04.002Z,46
2017-10-07T01:53:12.090Z,46
2017-10-07T01:54:20.179Z,46
2017-10-07T01:55:28.269Z,46
2017-10-07T01:56:36.359Z,46
2017-10-07T01:57:44.442Z,46
2017-10-07T01:58:52.530Z,46
2017-10-07T02:00:00.617Z,46
2017-10-07T02:01:08.710Z,46
2017-10-07T02:02:16.815Z,46
2017-10-07T02:03:24.908Z,46
2017-10-07T02:04:32.997Z,46
2017-10-07T02:05:41.085Z,46
2017-10-07T02:06:49.173Z,46
2017-10-07T02:07:57.266Z,46
2017-10-07T02:09:05.351Z,46
2017-10-07T02:10:13.439Z,46
2017-10-07T02:11:21.527Z,46
2017-10-07T02:12:29.614Z,46
2017-10-07T02:13:37.702Z,46
2017-10-07T02:14:45.791Z,46
2017-10-07T02:15:53.878Z,46
2017-10-07T02:17:01.967Z,46
2017-10-07T02:18:10.054Z,46
2017-10-07T02:19:18.145Z,46
2017-10-07T02:20:26.231Z,46
2017-10-07T02:21:34.321Z,46
2017-10-07T02:22:42.407Z,46
2017-10-07T02:23:50.494Z,46
2017-10-07T02:24:58.582Z,46
2017-10-07T02:26:06.670Z,46
2017-10-07T02:27:14.769Z,46
2017-10-07T02:28:22.857Z,46
2017-10-07T02:29:30.943Z,46
2017-10-07T02:30:39.033Z,46
2017-10-07T02:31:47.118Z,46
2017-10-07T02:32:55.210Z,46
2017-10-07T02:34:03.298Z,46
2017-10-07T02:35:11.387Z,46
2017-10-07T02:36:19.474Z,46
2017-10-07T02:37:27.561Z,46
2017-10-07T02:38:35.652Z,46
2017-10-07T02:39:43.741Z,46
2017-10-07T02:40:51.830Z,46
2017-10-07T02:41:59.918Z,46
2017-10-07T02:43:08.006Z,46
2017-10-07T02:44:16.096Z,46
2017-10-07T02:45:24.191Z,46
2017-10-07T02:46:32.271Z,46
2017-10-07T02:47:40.361Z,46
2017-10-07T02:48:48.454Z,46
2017-10-07T02:49:56.537Z,46
2017-10-07T02:51:04.624Z,46
2017-10-07T02:52:12.720Z,46
2017-10-07T02:53:20.810Z,46
2017-10-07T02:54:28.897Z,46
2017-10-07T02:55:36.986Z,46
2017-10-07T02:56:45.075Z,46
2017-10-07T02:57:53.161Z,46
2017-10-07T02:59:01.251Z,46
2017-10-07T03:00:09.338Z,46
2017-10-07T03:01:17.427Z,46
2017-10-07T03:02:25.534Z,46
2017-10-07T03:03:33.607Z,46
2017-10-07T03:04:41.693Z,46
2017-10-07T03:05:49.782Z,46
2017-10-07T03:06:57.867Z,46
2017-10-07T03:08:05.977Z,46
2017-10-07T03:09:14.042Z,46
2017-10-07T03:10:22.131Z,46
2017-10-07T03:11:30.219Z,46
2017-10-07T03:12:38.314Z,46
2017-10-07T03:14:54.487Z,46
2017-10-07T03:16:02.575Z,46
2017-10-07T03:17:10.663Z,46
2017-10-07T03:18:18.760Z,46
2017-10-07T03:19:26.849Z,46
2017-10-07T03:20:34.936Z,46
2017-10-07T03:21:43.025Z,46
2017-10-07T03:22:51.114Z,46
2017-10-07T03:23:59.201Z,46
2017-10-07T03:25:07.288Z,46
2017-10-07T03:26:15.376Z,46
2017-10-07T03:27:23.471Z,46
2017-10-07T03:28:31.552Z,46
2017-10-07T03:29:39.640Z,46
2017-10-07T03:30:47.729Z,46
2017-10-07T03:31:55.816Z,46
2017-10-07T03:33:03.904Z,46
2017-10-07T03:34:11.992Z,46
2017-10-07T03:35:20.231Z,46
2017-10-07T03:36:28.310Z,46
2017-10-07T03:37:36.397Z,46
2017-10-07T03:38:44.486Z,46
2017-10-07T03:39:52.573Z,46
2017-10-07T03:41:00.661Z,46
2017-10-07T03:42:08.761Z,46
2017-10-07T03:43:16.836Z,46
2017-10-07T03:44:24.926Z,46
2017-10-07T03:45:33.015Z,46
2017-10-07T03:46:41.101Z,46
2017-10-07T03:47:49.200Z,46
2017-10-07T03:48:57.280Z,46
2017-10-07T03:50:05.368Z,46
2017-10-07T03:51:13.454Z,46
2017-10-07T03:52:21.558Z,46
2017-10-07T03:53:29.631Z,46
2017-10-07T03:54:37.719Z,46
2017-10-07T03:55:45.806Z,46
2017-10-07T03:56:53.912Z,46
2017-10-07T03:58:01.984Z,46
2017-10-07T03:59:10.070Z,46
2017-10-07T04:00:18.158Z,46
2017-10-07T04:01:26.245Z,46
2017-10-07T04:02:34.332Z,46
2017-10-07T04:03:42.420Z,46
2017-10-07T04:04:50.510Z,46
2017-10-07T04:05:58.694Z,46
2017-10-07T04:07:06.683Z,46
2017-10-07T04:08:14.782Z,46
2017-10-07T04:09:22.871Z,46
2017-10-07T04:10:30.959Z,46
2017-10-07T04:11:39.047Z,46
2017-10-07T04:12:47.134Z,46
2017-10-07T04:13:55.222Z,46
2017-10-07T04:15:03.310Z,46
2017-10-07T04:16:11.397Z,46
2017-10-07T04:17:19.485Z,46
2017-10-07T04:18:27.572Z,46
2017-10-07T04:19:35.662Z,46
2017-10-07T04:20:43.749Z,46
2017-10-07T04:21:51.836Z,46
2017-10-07T04:22:59.922Z,46
2017-10-07T04:24:08.010Z,46
2017-10-07T04:25:16.177Z,46
2017-10-07T04:26:24.185Z,46
2017-10-07T04:27:32.273Z,46
2017-10-07T04:28:40.360Z,46
2017-10-07T04:29:48.453Z,46
2017-10-07T04:30:56.535Z,46
2017-10-07T04:32:04.622Z,46
2017-10-07T04:33:12.711Z,46
2017-10-07T04:34:20.797Z,46
2017-10-07T04:35:28.884Z,46
2017-10-07T04:36:36.980Z,46
2017-10-07T04:37:45.075Z,46
2017-10-07T04:38:53.188Z,46
2017-10-07T04:40:01.243Z,46
2017-10-07T04:41:09.335Z,46
2017-10-07T04:42:17.425Z,46
2017-10-07T04:43:25.511Z,46
2017-10-07T04:44:33.597Z,46
2017-10-07T04:45:41.686Z,46
2017-10-07T04:46:49.777Z,46
2017-10-07T04:47:57.931Z,46
2017-10-07T04:49:05.953Z,46
2017-10-07T04:50:14.254Z,46
2017-10-07T04:51:22.341Z,46
2017-10-07T04:52:30.670Z,46
2017-10-07T04:53:38.513Z,46
2017-10-07T04:54:46.601Z,46
2017-10-07T04:55:54.688Z,46
2017-10-07T04:57:02.777Z,46
2017-10-07T04:58:10.863Z,46
2017-10-07T04:59:18.952Z,46
2017-10-07T05:00:27.044Z,46
2017-10-07T05:01:35.131Z,46
2017-10-07T05:02:43.214Z,46
2017-10-07T05:03:51.318Z,46
2017-10-07T05:04:59.401Z,46
2017-10-07T05:06:07.486Z,46
2017-10-07T05:07:15.575Z,46
2017-10-07T05:08:23.663Z,46
2017-10-07T05:09:31.874Z,46
2017-10-07T05:10:39.835Z,46
2017-10-07T05:11:47.923Z,46
2017-10-07T05:12:56.010Z,46
2017-10-07T05:14:04.096Z,46
2017-10-07T05:15:12.185Z,46
2017-10-07T05:16:20.273Z,46
2017-10-07T05:17:28.363Z,46
2017-10-07T05:18:36.445Z,46
2017-10-07T05:19:44.655Z,46
2017-10-07T05:20:52.755Z,46
2017-10-07T05:22:00.714Z,46
2017-10-07T05:23:08.800Z,46
2017-10-07T05:24:16.886Z,46
2017-10-07T05:25:24.975Z,46
2017-10-07T05:26:33.062Z,46
2017-10-07T05:27:41.158Z,46
2017-10-07T05:28:49.492Z,45
2017-10-07T05:29:57.332Z,46
2017-10-07T05:31:05.419Z,46
2017-10-07T05:32:13.507Z,46
2017-10-07T05:33:21.594Z,46
2017-10-07T05:34:29.681Z,46
2017-10-07T05:35:37.767Z,46
2017-10-07T05:36:45.853Z,46
2017-10-07T05:37:53.940Z,46
2017-10-07T05:39:02.022Z,46
2017-10-07T05:40:10.118Z,45
2017-10-07T05:41:18.206Z,46
2017-10-07T05:42:26.303Z,45
2017-10-07T05:43:34.404Z,45
2017-10-07T05:44:42.485Z,46
2017-10-07T05:45:50.572Z,45
2017-10-07T05:46:58.668Z,46
2017-10-07T05:48:06.754Z,46
2017-10-07T05:49:14.845Z,45
2017-10-07T05:50:22.933Z,45
2017-10-07T05:51:31.015Z,46
2017-10-07T05:52:39.103Z,46
2017-10-07T05:53:47.193Z,46
2017-10-07T05:54:55.275Z,45
2017-10-07T05:56:03.363Z,45
2017-10-07T05:57:11.449Z,46
2017-10-07T05:58:19.534Z,45
2017-10-07T05:59:27.622Z,45
2017-10-07T06:00:35.711Z,45
2017-10-07T06:01:43.799Z,45
2017-10-07T06:02:51.888Z,45
2017-10-07T06:03:59.979Z,45
2017-10-07T06:05:08.292Z,45
2017-10-07T06:06:16.382Z,45
2017-10-07T06:07:24.468Z,45
2017-10-07T06:08:32.643Z,45
2017-10-07T06:09:40.731Z,45
2017-10-07T06:10:48.776Z,45
2017-10-07T06:11:57.154Z,45
2017-10-07T06:13:05.074Z,45
2017-10-07T06:14:12.998Z,45
2017-10-07T06:15:21.080Z,45
2017-10-07T06:16:29.266Z,45
2017-10-07T06:17:37.255Z,45
2017-10-07T06:18:45.344Z,45
2017-10-07T06:19:53.425Z,45
2017-10-07T06:21:01.610Z,45
2017-10-07T06:22:09.696Z,45
2017-10-07T06:23:17.780Z,45
2017-10-07T06:24:25.784Z,45
2017-10-07T06:25:33.868Z,45
2017-10-07T06:26:43.238Z,45
2017-10-07T06:27:50.176Z,45
2017-10-07T06:28:58.218Z,45
2017-10-07T06:30:06.267Z,45
2017-10-07T06:31:14.558Z,45
2017-10-07T06:32:22.466Z,46
2017-10-07T06:33:30.577Z,45
2017-10-07T06:34:38.563Z,45
2017-10-07T06:35:46.645Z,45
2017-10-07T06:36:54.742Z,45
2017-10-07T06:38:02.828Z,45
2017-10-07T06:39:10.915Z,45
2017-10-07T06:40:19.002Z,45
2017-10-07T06:41:27.089Z,45
2017-10-07T06:42:35.175Z,45
2017-10-07T06:43:43.271Z,45
2017-10-07T06:44:51.359Z,45
2017-10-07T06:45:59.443Z,45
2017-10-07T06:47:07.536Z,45
2017-10-07T06:48:15.617Z,46
2017-10-07T06:49:23.704Z,45
2017-10-07T06:50:31.800Z,45
2017-10-07T06:51:39.884Z,45
2017-10-07T06:52:47.974Z,45
2017-10-07T06:53:56.077Z,45
2017-10-07T06:55:04.156Z,46
2017-10-07T06:56:12.362Z,46
2017-10-07T06:57:20.317Z,45
2017-10-07T06:58:28.404Z,46
2017-10-07T06:59:36.497Z,45
2017-10-07T07:00:44.575Z,45
2017-10-07T07:01:52.665Z,45
2017-10-07T07:03:00.748Z,46
2017-10-07T07:04:08.838Z,45
2017-10-07T07:05:16.923Z,45
2017-10-07T07:06:25.007Z,46
2017-10-07T07:07:33.093Z,45
2017-10-07T07:08:41.179Z,46
2017-10-07T07:09:49.272Z,46
2017-10-07T07:10:57.359Z,46
2017-10-07T07:12:05.445Z,46
2017-10-07T07:13:13.532Z,45
2017-10-07T07:14:21.637Z,45
2017-10-07T07:15:29.705Z,45
2017-10-07T07:16:37.791Z,45
2017-10-07T07:17:45.877Z,45
2017-10-07T07:18:53.962Z,45
2017-10-07T07:20:02.044Z,45
2017-10-07T07:21:10.141Z,45
2017-10-07T07:22:18.228Z,45
2017-10-07T07:23:26.315Z,46
2017-10-07T07:24:34.402Z,46
2017-10-07T07:25:42.488Z,45
2017-10-07T07:26:50.574Z,45
2017-10-07T07:27:58.661Z,45
2017-10-07T07:29:06.746Z,46
2017-10-07T07:30:14.839Z,46
2017-10-07T07:31:22.920Z,46
2017-10-07T07:32:31.006Z,46
2017-10-07T07:33:39.093Z,46
2017-10-07T07:34:47.199Z,46
2017-10-07T07:35:55.265Z,46
2017-10-07T07:37:03.352Z,46
2017-10-07T07:38:11.437Z,46
2017-10-07T07:39:19.523Z,46
2017-10-07T07:40:27.850Z,46
2017-10-07T07:41:35.944Z,46
2017-10-07T07:42:44.294Z,46
2017-10-07T07:43:52.380Z,46
2017-10-07T07:45:00.467Z,46
2017-10-07T07:46:08.553Z,46
2017-10-07T07:47:16.639Z,46
2017-10-07T07:48:24.724Z,46
2017-10-07T07:49:32.815Z,46
2017-10-07T07:50:40.897Z,46
2017-10-07T07:51:48.985Z,46
2017-10-07T07:52:57.070Z,46
2017-10-07T07:54:05.157Z,46
2017-10-07T07:55:13.243Z,46
2017-10-07T07:56:21.335Z,46
2017-10-07T07:57:29.489Z,46
2017-10-07T07:58:38.061Z,46
2017-10-07T07:59:46.276Z,46
2017-10-07T08:00:53.780Z,47
2017-10-07T08:02:02.503Z,47
2017-10-07T08:03:10.328Z,47
2017-10-07T08:04:18.415Z,47
2017-10-07T08:05:26.500Z,47
2017-10-07T08:06:34.589Z,47
2017-10-07T08:07:42.673Z,47
2017-10-07T08:08:50.964Z,47
2017-10-07T08:09:58.867Z,47
2017-10-07T08:11:06.963Z,48
2017-10-07T08:12:15.050Z,47
2017-10-07T08:13:23.143Z,47
2017-10-07T08:14:31.228Z,47
2017-10-07T08:15:39.313Z,48
2017-10-07T08:16:47.415Z,47
2017-10-07T08:17:55.616Z,47
2017-10-07T08:19:03.583Z,48
2017-10-07T08:20:11.681Z,47
2017-10-07T08:21:19.765Z,47
2017-10-07T08:22:27.891Z,48
2017-10-07T08:23:36.556Z,48
2017-10-07T08:24:44.036Z,48
2017-10-07T08:25:52.120Z,47
2017-10-07T08:27:00.778Z,48
2017-10-07T08:28:08.292Z,48
2017-10-07T08:29:16.377Z,48
2017-10-07T08:30:24.463Z,48
2017-10-07T08:31:32.549Z,48
2017-10-07T08:32:40.640Z,48
2017-10-07T08:33:48.733Z,48
2017-10-07T08:34:56.813Z,48
2017-10-07T08:36:04.999Z,48
2017-10-07T08:37:14.077Z,48
2017-10-07T08:38:21.067Z,48
2017-10-07T08:39:29.154Z,48
2017-10-07T08:40:37.397Z,48
2017-10-07T08:41:45.375Z,48
2017-10-07T08:42:53.414Z,48
2017-10-07T08:44:05.138Z,48
2017-10-07T08:45:10.079Z,48
2017-10-07T08:46:18.007Z,48
2017-10-07T08:47:26.451Z,48
2017-10-07T08:48:33.878Z,48
2017-10-07T08:49:41.974Z,48
2017-10-07T08:50:50.764Z,48
2017-10-07T08:51:58.471Z,48
2017-10-07T08:53:07.046Z,48
2017-10-07T08:54:14.732Z,48
2017-10-07T08:55:22.817Z,48
2017-10-07T08:56:30.833Z,48
2017-10-07T08:57:38.932Z,48
2017-10-07T08:58:47.018Z,48
2017-10-07T08:59:55.343Z,49
2017-10-07T09:01:03.201Z,49
2017-10-07T09:02:11.374Z,48
2017-10-07T09:03:19.439Z,48
2017-10-07T09:04:27.447Z,48
2017-10-07T09:05:35.534Z,48
2017-10-07T09:06:43.630Z,49
2017-10-07T09:07:51.720Z,49
2017-10-07T09:08:59.806Z,48
2017-10-07T09:10:07.906Z,49
2017-10-07T09:11:15.981Z,48
2017-10-07T09:12:24.070Z,49
2017-10-07T09:13:32.156Z,49
2017-10-07T09:14:40.252Z,49
2017-10-07T09:15:48.338Z,48
2017-10-07T09:16:56.424Z,49
2017-10-07T09:18:04.511Z,49
2017-10-07T09:19:12.598Z,49
2017-10-07T09:20:20.684Z,49
2017-10-07T09:21:28.770Z,49
2017-10-07T09:22:36.915Z,48
2017-10-07T09:23:44.942Z,48
2017-10-07T09:24:53.027Z,48
2017-10-07T09:26:01.131Z,48
2017-10-07T09:27:09.202Z,48
2017-10-07T09:28:17.292Z,48
2017-10-07T09:29:25.381Z,48
2017-10-07T09:30:33.460Z,48
2017-10-07T09:31:41.553Z,48
2017-10-07T09:32:49.635Z,48
2017-10-07T09:33:57.722Z,49
2017-10-07T09:35:05.816Z,49
2017-10-07T09:36:13.893Z,48
2017-10-07T09:37:21.979Z,48
2017-10-07T09:38:30.067Z,48
2017-10-07T09:39:38.160Z,47
2017-10-07T09:40:46.241Z,46
2017-10-07T09:41:54.326Z,46
2017-10-07T09:43:02.413Z,45
2017-10-07T09:44:10.499Z,44
2017-10-07T09:45:18.589Z,44
2017-10-07T09:46:26.674Z,43
2017-10-07T09:47:34.761Z,43
2017-10-07T09:48:42.846Z,43
2017-10-07T09:49:50.933Z,43
2017-10-07T09:50:59.038Z,43
2017-10-07T09:52:07.110Z,43
2017-10-07T09:53:15.196Z,42
2017-10-07T09:54:23.283Z,42
2017-10-07T09:55:31.376Z,42
2017-10-07T09:56:39.455Z,42
2017-10-07T09:57:47.543Z,42
2017-10-07T09:58:55.630Z,42
2017-10-07T10:00:03.715Z,42
2017-10-07T10:01:11.801Z,42
2017-10-07T10:02:19.890Z,42
2017-10-07T10:03:28.061Z,42
2017-10-07T10:04:36.063Z,42
2017-10-07T10:05:44.151Z,42
2017-10-07T10:06:52.242Z,42
2017-10-07T10:08:00.322Z,42
2017-10-07T10:09:08.409Z,42
2017-10-07T10:10:16.494Z,42
2017-10-07T10:11:24.579Z,42
2017-10-07T10:12:32.683Z,42
2017-10-07T10:13:40.764Z,41
2017-10-07T10:14:48.850Z,42
2017-10-07T10:15:56.937Z,42
2017-10-07T10:17:05.023Z,42
2017-10-07T10:18:13.129Z,41
2017-10-07T10:19:21.203Z,41
2017-10-07T10:20:29.290Z,41
2017-10-07T10:21:37.376Z,42
2017-10-07T10:22:45.470Z,42
2017-10-07T10:23:53.551Z,42
2017-10-07T10:25:01.637Z,42
2017-10-07T10:26:09.720Z,41
2017-10-07T10:27:17.814Z,42
2017-10-07T10:28:25.893Z,41
2017-10-07T10:29:33.980Z,42
2017-10-07T10:30:42.075Z,42
2017-10-07T10:31:50.163Z,42
2017-10-07T10:32:58.248Z,41
2017-10-07T10:34:06.335Z,42
2017-10-07T10:35:14.438Z,42
2017-10-07T10:36:22.520Z,42
2017-10-07T10:37:30.604Z,42
2017-10-07T10:38:38.693Z,42
2017-10-07T10:39:46.785Z,41
2017-10-07T10:40:54.873Z,42
2017-10-07T10:42:02.957Z,41
2017-10-07T10:43:11.043Z,41
2017-10-07T10:44:19.130Z,41
2017-10-07T10:45:27.217Z,41
2017-10-07T10:46:35.303Z,42
2017-10-07T10:47:43.552Z,42
2017-10-07T10:48:51.476Z,42
2017-10-07T10:49:59.561Z,41
2017-10-07T10:51:07.654Z,42
2017-10-07T10:52:15.747Z,42
2017-10-07T10:53:23.829Z,42
2017-10-07T10:54:31.911Z,42
2017-10-07T10:55:39.996Z,42
2017-10-07T10:56:48.097Z,42
2017-10-07T10:57:56.181Z,42
2017-10-07T10:59:04.270Z,42
2017-10-07T11:00:12.453Z,42
2017-10-07T11:01:20.536Z,42
2017-10-07T11:02:28.627Z,41
2017-10-07T11:03:36.720Z,41
2017-10-07T11:04:44.817Z,41
2017-10-07T11:05:52.900Z,41
2017-10-07T11:07:00.986Z,41
2017-10-07T11:08:09.071Z,41
2017-10-07T11:09:17.155Z,41
2017-10-07T11:10:25.246Z,41
2017-10-07T11:11:33.328Z,41
2017-10-07T11:12:41.414Z,41
2017-10-07T11:13:49.502Z,41
2017-10-07T11:14:57.587Z,41
2017-10-07T11:16:05.673Z,41
2017-10-07T11:17:13.758Z,41
2017-10-07T11:18:21.854Z,41
2017-10-07T11:19:29.937Z,41
2017-10-07T11:20:38.023Z,41
2017-10-07T11:21:46.109Z,41
2017-10-07T11:22:54.200Z,41
2017-10-07T11:24:02.284Z,41
2017-10-07T11:25:10.370Z,41
2017-10-07T11:26:18.455Z,41
2017-10-07T11:27:26.539Z,41
2017-10-07T11:28:34.630Z,41
2017-10-07T11:29:42.712Z,41
2017-10-07T11:30:50.826Z,41
2017-10-07T11:31:58.884Z,41
2017-10-07T11:33:06.971Z,41
2017-10-07T11:34:15.066Z,41
2017-10-07T11:35:23.151Z,41
2017-10-07T11:36:31.244Z,41
2017-10-07T11:37:39.323Z,41
2017-10-07T11:38:47.409Z,41
2017-10-07T11:39:55.496Z,42
2017-10-07T11:41:03.582Z,42
2017-10-07T11:42:11.666Z,42
2017-10-07T11:43:19.752Z,41
2017-10-07T11:44:27.838Z,41
2017-10-07T11:45:35.929Z,42
2017-10-07T11:46:44.009Z,42
2017-10-07T11:47:52.095Z,42
2017-10-07T11:49:00.183Z,42
2017-10-07T11:50:08.270Z,42
2017-10-07T11:51:16.356Z,42
2017-10-07T11:52:24.441Z,42
2017-10-07T11:53:32.527Z,41
2017-10-07T11:54:40.611Z,42
2017-10-07T11:55:48.697Z,42
2017-10-07T11:56:56.782Z,42
2017-10-07T11:58:04.872Z,42
2017-10-07T11:59:12.964Z,41
2017-10-07T12:00:21.044Z,41
2017-10-07T12:01:29.501Z,42
2017-10-07T12:02:37.587Z,41
2017-10-07T12:03:45.674Z,41
2017-10-07T12:04:53.759Z,42
2017-10-07T12:06:01.941Z,42
2017-10-07T12:07:09.929Z,42
2017-10-07T12:08:18.016Z,42
2017-10-07T12:09:26.100Z,42
2017-10-07T12:10:34.189Z,42
2017-10-07T12:11:42.274Z,42
2017-10-07T12:12:50.415Z,42
2017-10-07T12:13:58.501Z,42
2017-10-07T12:15:06.592Z,42
2017-10-07T12:16:14.673Z,43
2017-10-07T12:17:22.758Z,43
2017-10-07T12:18:30.847Z,43
2017-10-07T12:19:38.937Z,43
2017-10-07T12:20:47.021Z,43
2017-10-07T12:21:55.103Z,43
2017-10-07T12:23:03.192Z,43
2017-10-07T12:24:11.279Z,44
2017-10-07T12:25:19.363Z,43
2017-10-07T12:26:27.445Z,43
2017-10-07T12:27:35.532Z,43
2017-10-07T12:28:43.620Z,44
2017-10-07T12:29:51.704Z,44
2017-10-07T12:30:59.791Z,44
2017-10-07T12:32:07.876Z,44
2017-10-07T12:33:15.966Z,44
2017-10-07T12:34:24.046Z,44
2017-10-07T12:35:32.238Z,44
2017-10-07T12:36:40.325Z,44
2017-10-07T12:37:48.408Z,44
2017-10-07T12:38:56.495Z,44
2017-10-07T12:40:04.580Z,44
2017-10-07T12:41:12.666Z,44
2017-10-07T12:42:20.774Z,44
2017-10-07T12:43:28.837Z,45
2017-10-07T12:44:36.925Z,45
2017-10-07T12:45:45.011Z,45
2017-10-07T12:46:53.095Z,44
2017-10-07T12:48:01.181Z,45
2017-10-07T12:49:09.266Z,45
2017-10-07T12:50:17.379Z,45
2017-10-07T12:51:25.445Z,45
2017-10-07T12:52:33.531Z,45
2017-10-07T12:53:41.618Z,45
2017-10-07T12:54:49.705Z,45
2017-10-07T12:55:57.794Z,45
2017-10-07T12:57:05.886Z,45
2017-10-07T12:58:13.980Z,45
2017-10-07T12:59:22.072Z,45
2017-10-07T13:00:30.173Z,45
2017-10-07T13:01:38.250Z,45
2017-10-07T13:02:46.336Z,45
2017-10-07T13:03:54.423Z,45
2017-10-07T13:05:02.514Z,45
2017-10-07T13:06:10.595Z,46
2017-10-07T13:07:18.680Z,46
2017-10-07T13:08:26.777Z,46
2017-10-07T13:09:34.861Z,46
2017-10-07T13:10:42.948Z,46
2017-10-07T13:11:51.034Z,46
2017-10-07T13:12:59.119Z,46
2017-10-07T13:14:07.207Z,46
2017-10-07T13:15:15.293Z,45
2017-10-07T13:16:23.386Z,46
2017-10-07T13:17:31.463Z,46
2017-10-07T13:18:39.550Z,46
2017-10-07T13:19:47.636Z,46
2017-10-07T13:20:55.721Z,46
2017-10-07T13:22:03.806Z,47
2017-10-07T13:23:11.892Z,47
2017-10-07T13:24:19.978Z,47
2017-10-07T13:25:28.063Z,47
2017-10-07T13:26:36.149Z,46
2017-10-07T13:27:44.234Z,46
2017-10-07T13:28:52.326Z,46
2017-10-07T13:30:00.407Z,46
2017-10-07T13:31:08.500Z,46
2017-10-07T13:32:16.579Z,46
2017-10-07T13:33:24.674Z,46
2017-10-07T13:34:32.749Z,46
2017-10-07T13:35:40.834Z,46
2017-10-07T13:36:48.921Z,46
2017-10-07T13:37:57.008Z,46
2017-10-07T13:39:05.094Z,46
2017-10-07T13:40:13.198Z,47
2017-10-07T13:41:21.265Z,46
2017-10-07T13:42:29.351Z,47
2017-10-07T13:43:37.436Z,46
2017-10-07T13:44:45.522Z,46
2017-10-07T13:45:53.608Z,46
2017-10-07T13:47:01.693Z,46
2017-10-07T13:48:09.778Z,46
2017-10-07T13:49:17.866Z,47
2017-10-07T13:50:25.951Z,47
2017-10-07T13:51:34.048Z,47
2017-10-07T13:52:42.141Z,47
2017-10-07T13:53:50.226Z,46
2017-10-07T13:54:58.312Z,47
2017-10-07T13:56:06.400Z,47
2017-10-07T13:57:14.485Z,47
2017-10-07T13:58:22.571Z,46
2017-10-07T13:59:30.657Z,47
2017-10-07T14:00:38.741Z,47
2017-10-07T14:01:46.828Z,46
2017-10-07T14:02:54.913Z,46
2017-10-07T14:04:02.999Z,46
2017-10-07T14:05:11.086Z,47
2017-10-07T14:06:19.171Z,46
2017-10-07T14:07:27.259Z,47
2017-10-07T14:08:35.345Z,47
2017-10-07T14:09:43.436Z,47
2017-10-07T14:10:51.544Z,47
2017-10-07T14:11:59.612Z,47
2017-10-07T14:13:07.698Z,47
2017-10-07T14:14:15.809Z,47
2017-10-07T14:15:23.870Z,47
2017-10-07T14:16:31.955Z,47
2017-10-07T14:17:40.042Z,47
2017-10-07T14:18:48.130Z,47
2017-10-07T14:19:56.210Z,47
2017-10-07T14:21:04.297Z,47
2017-10-07T14:22:12.384Z,46
2017-10-07T14:23:20.470Z,47
2017-10-07T14:24:28.555Z,46
2017-10-07T14:25:36.643Z,47
2017-10-07T14:26:44.728Z,47
2017-10-07T14:27:52.813Z,46
2017-10-07T14:29:00.899Z,47
2017-10-07T14:30:08.984Z,47
2017-10-07T14:31:17.070Z,47
2017-10-07T14:32:25.158Z,47
2017-10-07T14:33:33.251Z,47
2017-10-07T14:34:41.337Z,47
2017-10-07T14:35:49.961Z,47
2017-10-07T14:36:57.527Z,47
2017-10-07T14:38:05.665Z,47
2017-10-07T14:39:13.677Z,47
2017-10-07T14:40:21.831Z,47
2017-10-07T14:41:29.850Z,47
2017-10-07T14:42:37.936Z,47
2017-10-07T14:43:46.089Z,47
2017-10-07T14:44:54.173Z,47
2017-10-07T14:46:02.258Z,47
2017-10-07T14:47:10.345Z,47
2017-10-07T14:48:18.433Z,47
2017-10-07T14:49:26.518Z,47
2017-10-07T14:50:34.602Z,47
2017-10-07T14:51:42.688Z,47
2017-10-07T14:52:50.772Z,47
2017-10-07T14:53:58.857Z,47
2017-10-07T14:55:06.947Z,47
2017-10-07T14:56:15.030Z,47
2017-10-07T14:57:23.125Z,47
2017-10-07T14:58:31.212Z,48
2017-10-07T14:59:39.295Z,48
2017-10-07T15:00:47.380Z,48
2017-10-07T15:01:55.472Z,48
2017-10-07T15:03:03.553Z,48
2017-10-07T15:04:11.637Z,48
2017-10-07T15:05:19.726Z,48
2017-10-07T15:06:27.814Z,48
2017-10-07T15:07:35.902Z,48
2017-10-07T15:08:43.982Z,48
2017-10-07T15:09:52.068Z,48
2017-10-07T15:11:00.154Z,48
2017-10-07T15:12:08.240Z,48
2017-10-07T15:13:16.325Z,48
2017-10-07T15:14:24.412Z,48
2017-10-07T15:15:32.498Z,49
2017-10-07T15:16:40.586Z,49
2017-10-07T15:17:48.669Z,49
2017-10-07T15:18:56.752Z,49
2017-10-07T15:20:04.840Z,49
2017-10-07T15:21:12.947Z,49
2017-10-07T15:22:21.015Z,49
2017-10-07T15:23:29.098Z,49
2017-10-07T15:24:37.271Z,49
2017-10-07T15:25:45.289Z,49
2017-10-07T15:26:53.379Z,49
2017-10-07T15:28:01.470Z,49
2017-10-07T15:29:09.557Z,49
2017-10-07T15:30:17.642Z,49
2017-10-07T15:31:25.731Z,49
2017-10-07T15:32:33.832Z,49
2017-10-07T15:33:41.898Z,49
2017-10-07T15:34:49.992Z,49
2017-10-07T15:35:58.082Z,49
2017-10-07T15:37:06.168Z,50
2017-10-07T15:38:14.257Z,49
2017-10-07T15:39:22.348Z,50
2017-10-07T15:40:30.428Z,50
2017-10-07T15:41:38.514Z,50
2017-10-07T15:42:46.599Z,50
2017-10-07T15:43:54.686Z,50
2017-10-07T15:45:02.772Z,50
2017-10-07T15:46:10.855Z,50
2017-10-07T15:47:18.947Z,50
2017-10-07T15:48:27.041Z,50
2017-10-07T15:49:35.129Z,50
2017-10-07T15:50:43.218Z,50
2017-10-07T15:51:51.297Z,50
2017-10-07T15:52:59.384Z,50
2017-10-07T15:54:07.491Z,50
2017-10-07T15:55:15.555Z,50
2017-10-07T15:56:23.659Z,50
2017-10-07T15:57:31.728Z,50
2017-10-07T15:58:39.813Z,50
2017-10-07T15:59:47.915Z,50
2017-10-07T16:00:55.993Z,50
2017-10-07T16:02:04.077Z,50
2017-10-07T16:03:12.162Z,50
2017-10-07T16:04:20.260Z,50
2017-10-07T16:05:28.335Z,50
2017-10-07T16:06:36.420Z,51
2017-10-07T16:07:44.506Z,50
2017-10-07T16:08:52.590Z,50
2017-10-07T16:10:00.758Z,50
2017-10-07T16:11:08.765Z,50
2017-10-07T16:12:16.851Z,50